createdAt,value
2023-05-21T00:01:25.836Z,46.22
2023-05-21T00:03:52.808Z,46.57
2023-05-21T00:06:21.026Z,46.39
2023-05-21T00:08:48.015Z,46.68
2023-05-21T00:11:15.138Z,46.27
2023-05-21T00:13:41.974Z,46.64
2023-05-21T00:16:11.207Z,46.56
2023-05-21T00:18:39.486Z,45.98
2023-05-21T00:21:06.815Z,46.13
2023-05-21T00:23:34.166Z,46.49
2023-05-21T00:26:01.350Z,46.52
2023-05-21T00:28:28.208Z,46.06
2023-05-21T00:30:55.583Z,46.13
2023-05-21T00:33:22.585Z,46.48
2023-05-21T00:35:49.696Z,46.08
2023-05-21T00:38:18.597Z,46.59
2023-05-21T00:40:45.831Z,46.62
2023-05-21T00:43:14.407Z,46.48
2023-05-21T00:45:44.506Z,46.34
2023-05-21T00:48:11.362Z,46.49
2023-05-21T00:50:39.815Z,46.44
2023-05-21T00:53:09.726Z,46.00
2023-05-21T00:55:38.150Z,46.60
2023-05-21T00:58:05.426Z,46.21
2023-05-21T01:00:33.785Z,45.90
2023-05-21T01:03:01.224Z,46.45
2023-05-21T01:05:28.967Z,46.45
2023-05-21T01:07:56.000Z,46.27
2023-05-21T01:10:23.097Z,46.49
2023-05-21T01:12:49.886Z,46.57
2023-05-21T01:15:17.020Z,45.96
2023-05-21T01:17:46.082Z,45.92
2023-05-21T01:20:13.288Z,46.42
2023-05-21T01:22:54.667Z,46.07
2023-05-21T01:25:25.202Z,46.17
2023-05-21T01:27:52.275Z,46.29
2023-05-21T01:30:19.992Z,46.39
2023-05-21T01:32:58.603Z,46.14
2023-05-21T01:35:27.999Z,46.23
2023-05-21T01:37:57.807Z,46.25
2023-05-21T01:40:24.892Z,46.32
2023-05-21T01:42:51.635Z,46.51
2023-05-21T01:45:19.093Z,46.26
2023-05-21T01:47:48.324Z,46.61
2023-05-21T01:50:16.241Z,46.85
2023-05-21T01:52:51.412Z,46.71
2023-05-21T01:55:19.540Z,46.69
2023-05-21T01:57:46.352Z,47.06
2023-05-21T02:00:13.666Z,47.33
2023-05-21T02:02:40.483Z,47.51
2023-05-21T02:05:08.792Z,47.09
2023-05-21T02:07:35.527Z,46.73
2023-05-21T02:10:02.609Z,46.61
2023-05-21T02:12:29.553Z,46.77
2023-05-21T02:14:57.632Z,47.02
2023-05-21T02:17:24.598Z,47.27
2023-05-21T02:19:51.884Z,47.11
2023-05-21T02:22:18.611Z,46.81
2023-05-21T02:24:45.654Z,46.83
2023-05-21T02:27:13.438Z,47.04
2023-05-21T02:29:40.505Z,47.08
2023-05-21T02:32:07.674Z,46.74
2023-05-21T02:34:37.312Z,47.13
2023-05-21T02:37:04.126Z,46.95
2023-05-21T02:39:31.181Z,47.67
2023-05-21T02:41:57.930Z,47.99
2023-05-21T02:44:24.970Z,47.25
2023-05-21T02:46:51.757Z,46.78
2023-05-21T02:49:18.811Z,46.88
2023-05-21T02:51:45.752Z,46.81
2023-05-21T02:54:13.005Z,46.98
2023-05-21T02:56:39.775Z,46.71
2023-05-21T02:59:07.025Z,46.89
2023-05-21T03:01:33.841Z,46.36
2023-05-21T03:04:01.045Z,46.61
2023-05-21T03:06:27.812Z,46.96
2023-05-21T03:08:54.850Z,46.39
2023-05-21T03:11:22.594Z,46.36
2023-05-21T03:13:49.691Z,46.53
2023-05-21T03:16:17.669Z,46.13
2023-05-21T03:18:45.142Z,46.40
2023-05-21T03:21:15.489Z,46.64
2023-05-21T03:23:42.665Z,46.45
2023-05-21T03:26:09.522Z,46.65
2023-05-21T03:28:36.531Z,46.47
2023-05-21T03:31:03.354Z,46.18
2023-05-21T03:33:30.501Z,46.57
2023-05-21T03:35:57.271Z,46.24
2023-05-21T03:38:24.309Z,46.88
2023-05-21T03:40:51.104Z,46.81
2023-05-21T03:43:18.123Z,46.38
2023-05-21T03:45:45.032Z,46.42
2023-05-21T03:48:12.179Z,46.46
2023-05-21T03:50:38.941Z,46.83
2023-05-21T03:53:06.006Z,47.10
2023-05-21T03:55:32.742Z,46.44
2023-05-21T03:57:59.810Z,47.30
2023-05-21T04:00:26.567Z,47.13
2023-05-21T04:02:54.478Z,47.16
2023-05-21T04:05:21.262Z,46.60
2023-05-21T04:07:48.555Z,46.53
2023-05-21T04:10:15.351Z,46.82
2023-05-21T04:12:42.477Z,46.73
2023-05-21T04:15:09.559Z,46.49
2023-05-21T04:17:36.691Z,46.52
2023-05-21T04:20:04.402Z,46.62
2023-05-21T04:22:31.470Z,46.54
2023-05-21T04:24:59.659Z,46.45
2023-05-21T04:27:26.719Z,46.28
2023-05-21T04:29:54.786Z,46.67
2023-05-21T04:32:22.234Z,46.47
2023-05-21T04:34:48.968Z,46.96
2023-05-21T04:37:18.926Z,47.01
2023-05-21T04:39:46.887Z,47.29
2023-05-21T04:42:14.219Z,46.86
2023-05-21T04:44:41.241Z,47.53
2023-05-21T04:47:08.450Z,47.58
2023-05-21T04:49:35.292Z,48.04
2023-05-21T04:52:02.564Z,47.66
2023-05-21T04:54:29.367Z,47.23
2023-05-21T04:56:56.478Z,46.64
2023-05-21T04:59:23.485Z,46.76
2023-05-21T05:01:50.592Z,46.85
2023-05-21T05:04:17.392Z,46.38
2023-05-21T05:06:44.428Z,46.48
2023-05-21T05:09:11.294Z,46.83
2023-05-21T05:11:38.327Z,46.23
2023-05-21T05:14:05.118Z,47.15
2023-05-21T05:16:32.338Z,46.93
2023-05-21T05:18:59.260Z,47.33
2023-05-21T05:21:26.383Z,46.49
2023-05-21T05:23:53.151Z,45.90
2023-05-21T05:26:21.646Z,46.46
2023-05-21T05:28:48.468Z,47.03
2023-05-21T05:31:15.889Z,46.97
2023-05-21T05:33:42.747Z,46.64
2023-05-21T05:36:09.912Z,46.52
2023-05-21T05:38:36.655Z,45.96
2023-05-21T05:41:03.771Z,46.09
2023-05-21T05:43:30.805Z,45.95
2023-05-21T05:45:57.879Z,45.40
2023-05-21T05:48:24.644Z,45.45
2023-05-21T05:50:54.760Z,45.39
2023-05-21T05:53:21.559Z,45.30
2023-05-21T05:55:48.727Z,45.55
2023-05-21T05:58:15.749Z,45.51
2023-05-21T06:00:42.866Z,45.68
2023-05-21T06:03:09.740Z,45.40
2023-05-21T06:05:37.087Z,45.74
2023-05-21T06:08:04.083Z,45.37
2023-05-21T06:10:31.280Z,45.64
2023-05-21T06:12:58.030Z,45.86
2023-05-21T06:15:25.097Z,45.29
2023-05-21T06:17:51.856Z,45.17
2023-05-21T06:20:18.983Z,45.23
2023-05-21T06:22:45.746Z,45.52
2023-05-21T06:25:14.623Z,45.50
2023-05-21T06:27:41.460Z,45.67
2023-05-21T06:30:08.852Z,45.53
2023-05-21T06:32:35.786Z,45.19
2023-05-21T06:35:02.973Z,45.38
2023-05-21T06:37:29.710Z,45.52
2023-05-21T06:39:56.809Z,45.35
2023-05-21T06:42:23.526Z,45.34
2023-05-21T06:44:50.727Z,45.02
2023-05-21T06:47:17.435Z,45.50
2023-05-21T06:49:44.457Z,45.39
2023-05-21T06:52:11.396Z,45.28
2023-05-21T06:54:38.503Z,45.25
2023-05-21T06:57:05.537Z,44.90
2023-05-21T06:59:32.697Z,44.88
2023-05-21T07:01:59.975Z,44.82
2023-05-21T07:04:27.673Z,44.96
2023-05-21T07:06:54.621Z,44.82
2023-05-21T07:09:21.738Z,44.89
2023-05-21T07:11:48.566Z,44.48
2023-05-21T07:14:15.691Z,44.70
2023-05-21T07:16:42.537Z,45.01
2023-05-21T07:19:09.700Z,45.02
2023-05-21T07:21:36.509Z,44.37
2023-05-21T07:24:03.707Z,44.42
2023-05-21T07:26:30.617Z,44.40
2023-05-21T07:28:57.672Z,44.42
2023-05-21T07:31:25.382Z,44.59
2023-05-21T07:33:52.688Z,44.16
2023-05-21T07:36:19.431Z,44.66
2023-05-21T07:38:46.570Z,44.45
2023-05-21T07:41:13.369Z,44.09
2023-05-21T07:43:40.429Z,44.42
2023-05-21T07:46:07.238Z,44.49
2023-05-21T07:48:35.532Z,44.03
2023-05-21T07:51:03.921Z,44.37
2023-05-21T07:53:32.422Z,44.00
2023-05-21T07:56:02.256Z,44.19
2023-05-21T07:58:29.460Z,44.34
2023-05-21T08:00:57.323Z,44.20
2023-05-21T08:03:26.504Z,44.16
2023-05-21T08:05:53.433Z,43.79
2023-05-21T08:08:22.125Z,43.73
2023-05-21T08:10:49.082Z,44.08
2023-05-21T08:13:16.508Z,43.92
2023-05-21T08:15:43.388Z,43.79
2023-05-21T08:18:10.581Z,43.92
2023-05-21T08:20:37.516Z,43.63
2023-05-21T08:23:04.908Z,43.61
2023-05-21T08:25:31.761Z,43.53
2023-05-21T08:27:58.907Z,43.78
2023-05-21T08:30:25.685Z,43.92
2023-05-21T08:32:52.848Z,43.68
2023-05-21T08:35:19.602Z,43.49
2023-05-21T08:37:46.688Z,43.43
2023-05-21T08:40:13.688Z,43.64
2023-05-21T08:42:47.902Z,43.23
2023-05-21T08:45:15.507Z,43.36
2023-05-21T08:47:43.999Z,43.62
2023-05-21T08:50:12.191Z,43.00
2023-05-21T08:52:39.420Z,43.22
2023-05-21T08:55:07.377Z,43.04
2023-05-21T08:57:34.934Z,42.99
2023-05-21T09:00:02.124Z,42.99
2023-05-21T09:02:30.581Z,42.82
2023-05-21T09:04:58.813Z,43.24
2023-05-21T09:07:30.524Z,42.88
2023-05-21T09:09:58.997Z,42.86
2023-05-21T09:12:26.120Z,42.79
2023-05-21T09:14:52.948Z,42.29
2023-05-21T09:17:20.472Z,42.47
2023-05-21T09:20:16.523Z,42.15
2023-05-21T09:22:48.210Z,42.37
2023-05-21T09:25:24.133Z,42.28
2023-05-21T09:27:51.251Z,42.31
2023-05-21T09:30:20.873Z,42.13
2023-05-21T09:32:56.341Z,42.07
2023-05-21T09:35:23.253Z,42.09
2023-05-21T09:37:52.417Z,41.77
2023-05-21T09:40:20.431Z,41.54
2023-05-21T09:42:48.823Z,41.54
2023-05-21T09:45:25.308Z,41.45
2023-05-21T09:47:53.738Z,41.23
2023-05-21T09:50:22.498Z,41.31
2023-05-21T09:52:55.745Z,40.53
2023-05-21T09:55:22.971Z,41.11
2023-05-21T09:57:51.767Z,40.79
2023-05-21T10:00:27.443Z,40.59
2023-05-21T10:02:55.644Z,40.83
2023-05-21T10:05:26.168Z,40.42
2023-05-21T10:07:54.436Z,40.13
2023-05-21T10:10:21.888Z,39.98
2023-05-21T10:12:52.390Z,39.52
2023-05-21T10:15:21.008Z,40.21
2023-05-21T10:17:48.642Z,39.67
2023-05-21T10:20:16.030Z,39.43
2023-05-21T10:22:43.142Z,39.23
2023-05-21T10:25:10.126Z,39.63
2023-05-21T10:27:37.255Z,39.57
2023-05-21T10:30:05.794Z,39.04
2023-05-21T10:32:33.396Z,38.21
2023-05-21T10:35:01.959Z,37.36
2023-05-21T10:37:29.395Z,37.00
2023-05-21T10:39:56.316Z,37.50
2023-05-21T10:42:32.628Z,37.68
2023-05-21T10:45:12.921Z,37.57
2023-05-21T10:48:02.914Z,36.83
2023-05-21T10:50:54.384Z,36.49
2023-05-21T10:53:33.563Z,36.45
2023-05-21T10:56:28.692Z,36.40
2023-05-21T10:59:10.128Z,36.73
2023-05-21T11:01:37.947Z,36.34
2023-05-21T11:04:06.209Z,36.55
2023-05-21T11:06:33.022Z,37.06
2023-05-21T11:09:12.577Z,36.42
2023-05-21T11:11:42.891Z,36.06
2023-05-21T11:14:39.016Z,35.87
2023-05-21T11:17:40.168Z,35.70
2023-05-21T11:20:11.990Z,35.18
2023-05-21T11:22:38.805Z,34.99
2023-05-21T11:25:06.641Z,34.46
2023-05-21T11:27:40.536Z,34.50
2023-05-21T11:30:16.074Z,33.92
2023-05-21T11:33:10.920Z,34.07
2023-05-21T11:35:50.294Z,34.17
2023-05-21T11:38:17.766Z,34.19
2023-05-21T11:40:55.665Z,34.19
2023-05-21T11:43:22.593Z,33.90
2023-05-21T11:45:49.683Z,33.20
2023-05-21T11:48:17.714Z,33.18
2023-05-21T11:50:44.828Z,32.84
2023-05-21T11:53:12.375Z,33.36
2023-05-21T11:55:43.695Z,33.96
2023-05-21T11:58:13.587Z,33.13
2023-05-21T12:00:40.717Z,33.37
2023-05-21T12:03:08.469Z,32.99
2023-05-21T12:05:48.355Z,33.05
2023-05-21T12:08:25.776Z,33.32
2023-05-21T12:10:59.356Z,33.18
2023-05-21T12:13:26.504Z,32.06
2023-05-21T12:15:56.772Z,32.47
2023-05-21T12:18:23.545Z,32.29
2023-05-21T12:20:52.088Z,31.55
2023-05-21T12:23:25.566Z,31.34
2023-05-21T12:25:53.871Z,30.75
2023-05-21T12:28:21.412Z,30.95
2023-05-21T12:30:48.486Z,30.98
2023-05-21T12:33:17.968Z,31.03
2023-05-21T12:35:50.712Z,31.24
2023-05-21T12:38:17.495Z,31.62
2023-05-21T12:40:45.888Z,31.37
2023-05-21T12:43:12.958Z,31.42
2023-05-21T12:45:40.018Z,32.00
2023-05-21T12:48:07.053Z,31.17
2023-05-21T12:50:35.863Z,31.33
2023-05-21T12:53:03.074Z,30.78
2023-05-21T12:55:30.287Z,30.03
2023-05-21T12:58:02.622Z,30.31
2023-05-21T13:00:29.748Z,30.55
2023-05-21T13:02:59.709Z,30.53
2023-05-21T13:05:26.819Z,30.80
2023-05-21T13:07:53.571Z,30.87
2023-05-21T13:10:20.896Z,30.87
2023-05-21T13:12:47.672Z,31.09
2023-05-21T13:15:15.317Z,31.16
2023-05-21T13:17:42.160Z,30.60
2023-05-21T13:20:16.813Z,30.43
2023-05-21T13:22:50.714Z,30.35
2023-05-21T13:25:20.379Z,30.46
2023-05-21T13:27:47.777Z,30.04
2023-05-21T13:30:15.037Z,30.32
2023-05-21T13:32:42.304Z,29.83
2023-05-21T13:35:10.181Z,30.60
2023-05-21T13:37:37.085Z,30.90
2023-05-21T13:40:05.828Z,30.98
2023-05-21T13:42:33.484Z,30.89
2023-05-21T13:45:00.725Z,31.02
2023-05-21T13:47:27.523Z,30.97
2023-05-21T13:49:54.592Z,30.93
2023-05-21T13:52:21.766Z,29.56
2023-05-21T13:54:48.837Z,29.14
2023-05-21T13:57:15.824Z,30.37
2023-05-21T13:59:42.908Z,30.67
2023-05-21T14:02:10.221Z,30.58
2023-05-21T14:04:39.218Z,30.05
2023-05-21T14:07:06.583Z,29.87
2023-05-21T14:09:33.975Z,29.60
2023-05-21T14:12:01.569Z,30.18
2023-05-21T14:14:28.689Z,29.75
2023-05-21T14:16:55.769Z,29.93
2023-05-21T14:19:22.973Z,30.73
2023-05-21T14:21:51.952Z,30.72
2023-05-21T14:24:19.458Z,31.23
2023-05-21T14:26:46.274Z,30.98
2023-05-21T14:29:13.366Z,31.47
2023-05-21T14:31:40.174Z,31.07
2023-05-21T14:34:08.804Z,31.39
2023-05-21T14:36:36.507Z,31.71
2023-05-21T14:39:03.901Z,32.00
2023-05-21T14:41:30.865Z,30.96
2023-05-21T14:43:57.955Z,31.23
2023-05-21T14:46:24.959Z,31.25
2023-05-21T14:48:52.834Z,31.48
2023-05-21T14:51:19.679Z,31.86
2023-05-21T14:53:46.702Z,32.00
2023-05-21T14:56:13.493Z,30.96
2023-05-21T14:58:40.872Z,30.50
2023-05-21T15:01:07.908Z,30.53
2023-05-21T15:03:35.105Z,30.86
2023-05-21T15:06:01.957Z,31.95
2023-05-21T15:08:29.034Z,31.68
2023-05-21T15:10:56.767Z,31.36
2023-05-21T15:13:23.979Z,31.37
2023-05-21T15:15:51.117Z,31.13
2023-05-21T15:18:18.355Z,30.99
2023-05-21T15:20:45.140Z,31.32
2023-05-21T15:23:17.359Z,31.71
2023-05-21T15:25:45.458Z,30.97
2023-05-21T15:28:12.726Z,31.48
2023-05-21T15:30:39.988Z,31.08
2023-05-21T15:33:07.121Z,30.60
2023-05-21T15:35:35.406Z,31.07
2023-05-21T15:38:02.912Z,31.16
2023-05-21T15:40:29.680Z,31.88
2023-05-21T15:42:57.050Z,31.21
2023-05-21T15:45:24.625Z,31.60
2023-05-21T15:47:51.670Z,31.20
2023-05-21T15:50:18.493Z,30.80
2023-05-21T15:52:45.571Z,31.14
2023-05-21T15:55:13.960Z,30.78
2023-05-21T15:57:41.084Z,31.17
2023-05-21T16:00:09.803Z,31.20
2023-05-21T16:02:37.080Z,30.88
2023-05-21T16:05:04.180Z,31.46
2023-05-21T16:07:31.262Z,31.89
2023-05-21T16:09:58.071Z,31.31
2023-05-21T16:12:26.015Z,31.75
2023-05-21T16:14:52.923Z,31.61
2023-05-21T16:17:20.037Z,31.99
2023-05-21T16:19:47.592Z,31.48
2023-05-21T16:22:14.989Z,32.21
2023-05-21T16:24:41.774Z,32.55
2023-05-21T16:27:08.872Z,32.93
2023-05-21T16:29:35.644Z,32.27
2023-05-21T16:32:02.912Z,32.65
2023-05-21T16:34:30.279Z,32.53
2023-05-21T16:36:58.648Z,33.27
2023-05-21T16:39:25.498Z,32.26
2023-05-21T16:41:54.002Z,32.65
2023-05-21T16:44:20.865Z,32.41
2023-05-21T16:46:47.924Z,32.21
2023-05-21T16:49:14.661Z,32.49
2023-05-21T16:51:41.706Z,32.88
2023-05-21T16:54:08.545Z,32.32
2023-05-21T16:56:35.655Z,32.52
2023-05-21T16:59:02.422Z,32.41
2023-05-21T17:01:29.493Z,32.85
2023-05-21T17:03:56.442Z,32.77
2023-05-21T17:06:23.932Z,32.04
2023-05-21T17:08:50.777Z,32.85
2023-05-21T17:11:17.861Z,33.43
2023-05-21T17:13:48.177Z,33.09
2023-05-21T17:16:15.458Z,32.96
2023-05-21T17:18:42.241Z,33.29
2023-05-21T17:21:09.668Z,33.50
2023-05-21T17:23:36.548Z,32.96
2023-05-21T17:26:03.611Z,33.27
2023-05-21T17:28:30.400Z,33.77
2023-05-21T17:30:57.465Z,32.94
2023-05-21T17:33:25.174Z,33.66
2023-05-21T17:35:52.348Z,33.69
2023-05-21T17:38:19.160Z,33.59
2023-05-21T17:40:46.302Z,34.05
2023-05-21T17:43:13.121Z,34.26
2023-05-21T17:45:40.381Z,33.93
2023-05-21T17:48:07.427Z,33.66
2023-05-21T17:50:34.694Z,34.02
2023-05-21T17:53:01.508Z,33.56
2023-05-21T17:55:28.722Z,33.78
2023-05-21T17:57:55.582Z,33.85
2023-05-21T18:00:22.644Z,34.26
2023-05-21T18:02:49.474Z,34.54
2023-05-21T18:05:16.663Z,33.78
2023-05-21T18:07:43.444Z,34.11
2023-05-21T18:10:10.905Z,34.05
2023-05-21T18:12:37.684Z,34.46
2023-05-21T18:15:05.314Z,34.75
2023-05-21T18:17:32.124Z,34.68
2023-05-21T18:19:59.242Z,34.40
2023-05-21T18:22:25.973Z,34.55
2023-05-21T18:24:53.085Z,35.29
2023-05-21T18:27:19.937Z,34.91
2023-05-21T18:29:49.008Z,34.86
2023-05-21T18:32:16.927Z,35.33
2023-05-21T18:34:44.364Z,35.18
2023-05-21T18:37:11.225Z,35.43
2023-05-21T18:39:38.300Z,35.68
2023-05-21T18:42:12.702Z,35.44
2023-05-21T18:44:40.324Z,35.66
2023-05-21T18:47:08.240Z,35.90
2023-05-21T18:49:36.220Z,35.81
2023-05-21T18:52:04.427Z,35.82
2023-05-21T18:54:31.850Z,36.11
2023-05-21T18:57:00.465Z,35.81
2023-05-21T18:59:28.390Z,35.81
2023-05-21T19:01:55.295Z,35.79
2023-05-21T19:04:22.536Z,35.86
2023-05-21T19:06:49.356Z,36.00
2023-05-21T19:09:16.703Z,36.35
2023-05-21T19:11:43.506Z,36.08
2023-05-21T19:14:10.636Z,36.00
2023-05-21T19:16:37.528Z,35.77
2023-05-21T19:19:04.795Z,36.30
2023-05-21T19:21:32.318Z,36.48
2023-05-21T19:23:59.421Z,36.30
2023-05-21T19:26:26.198Z,36.36
2023-05-21T19:28:54.427Z,36.34
2023-05-21T19:31:25.520Z,36.28
2023-05-21T19:33:52.767Z,36.31
2023-05-21T19:36:20.789Z,36.21
2023-05-21T19:38:51.046Z,36.37
2023-05-21T19:41:18.270Z,36.46
2023-05-21T19:43:45.620Z,36.08
2023-05-21T19:46:12.659Z,36.01
2023-05-21T19:48:39.959Z,36.37
2023-05-21T19:51:06.754Z,36.20
2023-05-21T19:53:34.947Z,36.09
2023-05-21T19:56:01.939Z,36.89
2023-05-21T19:58:30.399Z,36.48
2023-05-21T20:00:59.339Z,36.48
2023-05-21T20:03:26.973Z,36.59
2023-05-21T20:05:54.277Z,36.46
2023-05-21T20:08:21.673Z,36.47
2023-05-21T20:10:51.393Z,36.58
2023-05-21T20:13:19.665Z,36.68
2023-05-21T20:15:47.879Z,36.58
2023-05-21T20:18:15.579Z,36.61
2023-05-21T20:20:43.001Z,37.08
2023-05-21T20:23:10.180Z,37.05
2023-05-21T20:25:37.032Z,36.61
2023-05-21T20:28:05.406Z,36.72
2023-05-21T20:30:33.159Z,36.58
2023-05-21T20:33:01.852Z,36.98
2023-05-21T20:35:28.849Z,36.54
2023-05-21T20:37:56.013Z,36.71
2023-05-21T20:40:22.821Z,36.50
2023-05-21T20:42:52.021Z,36.83
2023-05-21T20:45:18.932Z,36.65
2023-05-21T20:47:47.848Z,36.74
2023-05-21T20:50:14.744Z,36.82
2023-05-21T20:52:44.879Z,36.64
2023-05-21T20:55:14.751Z,37.01
2023-05-21T20:57:42.305Z,37.03
2023-05-21T21:00:11.659Z,37.11
2023-05-21T21:02:39.085Z,36.67
2023-05-21T21:05:06.468Z,36.88
2023-05-21T21:07:34.313Z,37.00
2023-05-21T21:10:01.596Z,36.99
2023-05-21T21:12:28.806Z,36.84
2023-05-21T21:14:55.687Z,37.10
2023-05-21T21:17:23.184Z,36.63
2023-05-21T21:19:50.157Z,36.84
2023-05-21T21:22:18.355Z,37.13
2023-05-21T21:24:45.644Z,37.06
2023-05-21T21:27:12.808Z,37.07
2023-05-21T21:29:39.708Z,36.97
2023-05-21T21:32:07.302Z,36.85
2023-05-21T21:34:34.074Z,37.07
2023-05-21T21:37:01.159Z,36.72
2023-05-21T21:39:27.966Z,37.07
2023-05-21T21:41:55.060Z,37.16
2023-05-21T21:44:21.939Z,36.72
2023-05-21T21:46:49.003Z,37.21
2023-05-21T21:49:17.403Z,37.05
2023-05-21T21:51:44.953Z,36.97
2023-05-21T21:54:11.945Z,36.60
2023-05-21T21:56:39.071Z,37.24
2023-05-21T21:59:05.968Z,37.24
2023-05-21T22:01:33.205Z,37.03
2023-05-21T22:03:59.966Z,36.82
2023-05-21T22:06:27.714Z,37.37
2023-05-21T22:08:54.675Z,36.61
2023-05-21T22:11:22.014Z,36.89
2023-05-21T22:13:49.028Z,36.91
2023-05-21T22:16:16.299Z,36.89
2023-05-21T22:18:43.151Z,37.43
2023-05-21T22:21:10.834Z,37.37
2023-05-21T22:23:38.448Z,37.00
2023-05-21T22:26:06.566Z,36.86
2023-05-21T22:28:33.462Z,36.99
2023-05-21T22:31:00.915Z,36.84
2023-05-21T22:33:29.206Z,36.96
2023-05-21T22:35:56.949Z,36.84
2023-05-21T22:38:24.770Z,37.36
2023-05-21T22:40:51.853Z,37.09
2023-05-21T22:43:18.643Z,37.46
2023-05-21T22:45:45.782Z,36.93
2023-05-21T22:48:12.572Z,37.11
2023-05-21T22:50:39.874Z,37.02
2023-05-21T22:53:06.956Z,37.60
2023-05-21T22:55:34.013Z,37.48
2023-05-21T22:58:00.784Z,37.64
2023-05-21T23:00:28.139Z,37.30
2023-05-21T23:02:55.175Z,37.24
2023-05-21T23:05:22.520Z,37.00
2023-05-21T23:07:49.594Z,37.52
2023-05-21T23:10:16.774Z,37.57
2023-05-21T23:12:43.560Z,37.28
2023-05-21T23:15:11.065Z,37.32
2023-05-21T23:17:38.361Z,37.18
2023-05-21T23:20:09.297Z,37.46
2023-05-21T23:22:36.233Z,37.32
2023-05-21T23:25:03.930Z,37.15
2023-05-21T23:27:30.769Z,37.64
2023-05-21T23:29:57.808Z,37.24
2023-05-21T23:32:24.541Z,37.32
2023-05-21T23:34:51.619Z,37.72
2023-05-21T23:37:18.890Z,37.86
2023-05-21T23:39:49.567Z,37.75
2023-05-21T23:42:17.122Z,37.78
2023-05-21T23:44:44.309Z,37.45
2023-05-21T23:47:11.067Z,37.64
2023-05-21T23:49:38.768Z,37.92
2023-05-21T23:52:06.089Z,37.37
2023-05-21T23:54:33.215Z,37.54
2023-05-21T23:57:00.016Z,37.57
2023-05-21T23:59:27.061Z,37.91
